Startpagina
METAR-TAF:

METAR-TAF

Vliegvelden :

Rajkot, India

breedte: 22-18N, lengte: 070-47E, hoogte: 134 m

Actueel weer

Dit bericht is 5 uur en het 44 minuten geleden gemaakt, om 00:00 UTC
Wind 6 kt uit het noordoosten
Temperatuur 13°C
Vochtigheid 47%
Druk 1014 hPa
Zicht: 6000 m

METAR: VARK 140000Z 05006KT 6000 NSC 13/02 Q1014

Tijdstip: 11:14 (05:44 UTC)


TAF: ontbreekt

Waarnemingen en weersverwachtingen van meer dan 4000 vliegvelden (METAR en TAF).

De beschikbare stations zijn de gele en rode punten op de kaart.

Ga met uw muis naar het station om de naam te zien.

Klik dan om waarnemingen en weersverwachtingen te zien.

kaart wijzigen: klik op de groene knoppen met een zwart kruis om in te zoomen, op de groene knop met een streepje om uit te zoomen of op de groene pijlen voor aangrenzende kaarten.


METAR-TAF: